Time;durP1;ratioP1;P1;durP2;ratioP2;P2;SDS_P1;SDS_P2;PMS_P1;PMS_P2;Temp;Humidity;BMP_temperature;BMP_pressure;BME280_temperature;BME280_humidity;BME280_pressure;Samples;Min_cycle;Max_cycle;Signal;HPM_P1;HPM_P2
2021/11/13 00:01:27;;;;;;;9.15;6.22;;;2.00;99.90;;;;;;4748173;30;20573;-81
2021/11/13 00:03:54;;;;;;;10.00;6.63;;;2.00;99.90;;;;;;4762102;30;20483;-81
2021/11/13 00:06:24;;;;;;;23.52;10.18;;;2.10;99.90;;;;;;4747163;30;20584;-81
2021/11/13 00:08:51;;;;;;;14.02;6.28;;;2.10;99.90;;;;;;4748770;30;20506;-80
2021/11/13 00:11:19;;;;;;;11.32;7.55;;;2.20;99.90;;;;;;4748483;30;20052;-79
2021/11/13 00:13:52;;;;;;;42.58;8.95;;;2.20;99.90;;;;;;4748416;30;20059;-79
2021/11/13 00:16:20;;;;;;;15.43;7.63;;;2.10;99.90;;;;;;4747909;30;20060;-79
2021/11/13 00:18:47;;;;;;;17.38;7.38;;;2.20;99.90;;;;;;4761808;30;20070;-79
2021/11/13 00:21:15;;;;;;;15.43;10.15;;;2.30;99.90;;;;;;4748051;30;20062;-79
2021/11/13 00:23:43;;;;;;;10.82;7.43;;;2.20;99.90;;;;;;4762502;30;20052;-79
2021/11/13 00:26:11;;;;;;;20.92;10.30;;;2.20;99.90;;;;;;4750546;30;20052;-79
2021/11/13 00:28:38;;;;;;;15.95;9.05;;;2.30;99.90;;;;;;4765498;30;20049;-79
2021/11/13 00:31:06;;;;;;;16.05;8.38;;;2.30;99.90;;;;;;4765499;30;20493;-79
2021/11/13 00:33:34;;;;;;;64.00;10.13;;;2.40;99.90;;;;;;4748054;30;20052;-79
2021/11/13 00:36:02;;;;;;;13.82;7.18;;;2.20;99.90;;;;;;4758691;30;20060;-79
2021/11/13 00:38:30;;;;;;;13.40;7.30;;;2.30;99.90;;;;;;4751627;30;20052;-79
2021/11/13 00:40:58;;;;;;;10.50;6.50;;;2.20;99.90;;;;;;4752040;30;20497;-79
2021/11/13 00:43:27;;;;;;;15.02;6.40;;;2.20;99.90;;;;;;4751328;30;20048;-79
2021/11/13 00:45:55;;;;;;;15.23;7.25;;;2.20;99.90;;;;;;4765253;30;20036;-79
2021/11/13 00:48:22;;;;;;;13.52;5.53;;;2.20;99.90;;;;;;4750775;30;20055;-79
2021/11/13 00:50:51;;;;;;;13.82;7.45;;;2.20;99.90;;;;;;4764308;30;20055;-79
2021/11/13 00:53:19;;;;;;;26.85;8.80;;;2.20;99.90;;;;;;4764889;30;20052;-79
2021/11/13 00:55:47;;;;;;;11.57;8.07;;;2.30;99.90;;;;;;4765065;30;20060;-79
2021/11/13 00:58:14;;;;;;;12.20;7.90;;;2.20;99.90;;;;;;4751325;30;20052;-79
2021/11/13 01:00:42;;;;;;;10.07;6.57;;;2.30;99.90;;;;;;4751071;30;20390;-76
2021/11/13 01:03:10;;;;;;;13.93;7.63;;;2.30;99.90;;;;;;4750736;30;20063;-77
2021/11/13 01:05:38;;;;;;;15.45;7.10;;;2.20;99.90;;;;;;4751205;30;20067;-76
2021/11/13 01:08:06;;;;;;;45.50;11.32;;;2.20;99.90;;;;;;4765032;30;20064;-76
2021/11/13 01:10:34;;;;;;;15.15;6.78;;;2.10;99.90;;;;;;4764274;30;20060;-76
2021/11/13 01:13:02;;;;;;;18.33;6.97;;;2.20;99.90;;;;;;4751398;30;20060;-76
2021/11/13 01:15:30;;;;;;;13.23;7.60;;;2.10;99.90;;;;;;4750621;29;20057;-76
2021/11/13 01:17:58;;;;;;;17.13;8.30;;;2.10;99.90;;;;;;4750182;30;20405;-76
2021/11/13 01:20:29;;;;;;;11.10;7.55;;;2.20;99.90;;;;;;4751394;30;20063;-76
2021/11/13 01:22:57;;;;;;;24.42;8.80;;;2.20;99.90;;;;;;4750890;30;20063;-76
2021/11/13 01:25:26;;;;;;;27.25;8.20;;;2.10;99.90;;;;;;4750692;30;20055;-76
2021/11/13 01:27:55;;;;;;;19.33;7.50;;;2.10;99.90;;;;;;4750657;30;20519;-76
2021/11/13 01:30:23;;;;;;;20.83;9.55;;;2.10;99.90;;;;;;4759154;30;20514;-76
2021/11/13 01:32:51;;;;;;;13.85;7.28;;;2.10;99.90;;;;;;4752262;30;20063;-76
2021/11/13 01:35:22;;;;;;;16.52;8.30;;;2.20;99.90;;;;;;4752520;29;20059;-77
2021/11/13 01:37:49;;;;;;;35.03;8.60;;;2.20;99.90;;;;;;4751992;30;20044;-77
2021/11/13 01:40:22;;;;;;;30.77;8.30;;;2.10;99.90;;;;;;4767028;30;20479;-76
2021/11/13 01:42:52;;;;;;;10.80;6.90;;;2.10;99.90;;;;;;4767926;29;20417;-76
2021/11/13 01:45:21;;;;;;;18.85;9.07;;;2.20;99.90;;;;;;4768382;29;20423;-76
2021/11/13 01:47:49;;;;;;;18.75;7.65;;;2.30;99.90;;;;;;4751548;30;20070;-76
2021/11/13 01:50:21;;;;;;;23.33;9.40;;;2.20;99.90;;;;;;4768124;30;20581;-76
2021/11/13 01:52:49;;;;;;;11.95;6.72;;;2.20;99.90;;;;;;4768263;30;20067;-76
2021/11/13 01:55:21;;;;;;;27.00;9.57;;;2.20;99.90;;;;;;4767866;29;20534;-76
2021/11/13 01:57:50;;;;;;;42.08;9.35;;;2.20;99.90;;;;;;4737068;30;20044;-76
2021/11/13 02:00:35;;;;;;;13.35;8.45;;;2.20;99.90;;;;;;4752075;30;20068;-76
2021/11/13 02:03:05;;;;;;;32.45;10.27;;;2.20;99.90;;;;;;4781161;29;20058;-76
2021/11/13 02:05:33;;;;;;;22.80;8.60;;;2.20;99.90;;;;;;4767781;29;20059;-77
2021/11/13 02:08:06;;;;;;;26.58;9.68;;;2.10;99.90;;;;;;4768445;30;20051;-76
2021/11/13 02:10:34;;;;;;;21.48;8.27;;;2.10;99.90;;;;;;4767795;29;20044;-77
2021/11/13 02:13:02;;;;;;;23.00;9.10;;;2.20;99.90;;;;;;4751991;30;20055;-76
2021/11/13 02:15:30;;;;;;;16.60;7.95;;;2.20;99.90;;;;;;4747759;30;20059;-76
2021/11/13 02:18:00;;;;;;;21.98;8.40;;;2.10;99.90;;;;;;4731372;30;20053;-76
2021/11/13 02:20:36;;;;;;;25.33;8.95;;;2.20;99.90;;;;;;4732664;30;20064;-76
2021/11/13 02:23:08;;;;;;;19.77;6.93;;;2.10;99.90;;;;;;4732275;30;20059;-77
2021/11/13 02:25:36;;;;;;;38.30;10.65;;;2.10;99.90;;;;;;4730832;30;20040;-78
2021/11/13 02:28:06;;;;;;;69.43;9.98;;;2.20;99.90;;;;;;4732270;30;20057;-78
2021/11/13 02:30:34;;;;;;;17.08;8.27;;;2.20;99.90;;;;;;4752473;30;20059;-78
2021/11/13 02:33:03;;;;;;;48.45;8.55;;;2.20;99.90;;;;;;4767265;30;20059;-78
2021/11/13 02:35:31;;;;;;;29.90;12.27;;;2.20;99.90;;;;;;4780792;30;20048;-78
2021/11/13 02:38:24;;;;;;;31.55;8.35;;;2.00;99.90;;;;;;4751430;30;20050;-78
2021/11/13 02:40:55;;;;;;;;;;;2.10;99.90;;;;;;4767345;30;20048;-78
2021/11/13 02:43:26;;;;;;;24.30;7.88;;;2.20;99.90;;;;;;4764595;29;19926;-76
2021/11/13 02:45:55;;;;;;;11.90;6.85;;;2.20;99.90;;;;;;4749405;30;20051;-77
2021/11/13 02:48:24;;;;;;;28.60;10.32;;;2.20;99.90;;;;;;4748533;30;20056;-77
2021/11/13 02:50:52;;;;;;;19.65;7.65;;;2.10;99.90;;;;;;4749028;30;20048;-77
2021/11/13 02:53:23;;;;;;;44.22;8.45;;;2.10;99.90;;;;;;4749140;29;20074;-77
2021/11/13 02:55:53;;;;;;;53.65;7.43;;;2.20;99.90;;;;;;4750099;30;20550;-76
2021/11/13 02:58:23;;;;;;;60.63;13.15;;;2.10;99.90;;;;;;4730354;30;20049;-78
2021/11/13 03:00:57;;;;;;;55.47;11.93;;;2.00;99.90;;;;;;4745004;30;20150;-78
2021/11/13 03:03:26;;;;;;;28.60;12.38;;;2.00;99.90;;;;;;4731014;30;20059;-78
2021/11/13 03:05:56;;;;;;;50.28;7.22;;;2.00;99.90;;;;;;4731270;30;20082;-79
2021/11/13 03:08:44;;;;;;;101.30;14.47;;;2.00;99.90;;;;;;4731870;30;20053;-78
2021/11/13 03:12:16;;;;;;;36.00;9.15;;;1.90;99.90;;;;;;4714265;30;20071;-79
2021/11/13 03:15:37;;;;;;;40.65;9.05;;;1.90;99.90;;;;;;4729433;30;20048;-78
2021/11/13 03:18:21;;;;;;;54.38;13.20;;;1.90;99.90;;;;;;4730741;30;20045;-79
2021/11/13 03:21:49;;;;;;;35.20;9.07;;;1.90;99.90;;;;;;4731269;30;20045;-79
2021/11/13 03:25:15;;;;;;;32.33;10.75;;;1.80;99.90;;;;;;4741709;30;20058;-79
2021/11/13 03:28:17;;;;;;;33.58;10.55;;;1.80;99.90;;;;;;4732929;30;20486;-78
2021/11/13 03:30:45;;;;;;;34.88;7.28;;;1.80;99.90;;;;;;4743557;30;20055;-78
2021/11/13 03:33:13;;;;;;;24.33;5.82;;;1.80;99.90;;;;;;4765807;29;20059;-78
2021/11/13 03:35:41;;;;;;;15.48;6.07;;;1.90;99.90;;;;;;4766977;30;20064;-78
2021/11/13 03:38:12;;;;;;;49.75;8.05;;;1.80;99.90;;;;;;4766678;29;20044;-78
2021/11/13 03:40:44;;;;;;;24.52;6.40;;;1.80;99.90;;;;;;4766925;30;20406;-78
2021/11/13 03:43:13;;;;;;;21.13;6.22;;;1.70;99.90;;;;;;4749830;30;20055;-78
2021/11/13 03:45:42;;;;;;;41.10;9.98;;;1.70;99.90;;;;;;4750440;30;20044;-78
2021/11/13 03:48:10;;;;;;;33.78;7.43;;;1.70;99.90;;;;;;4750196;30;20060;-78
2021/11/13 03:50:38;;;;;;;32.65;7.90;;;1.70;99.90;;;;;;4766349;29;20498;-78
2021/11/13 03:53:07;;;;;;;38.97;11.38;;;1.90;99.90;;;;;;4767001;30;20055;-78
2021/11/13 03:55:36;;;;;;;24.73;6.40;;;1.70;99.90;;;;;;4765916;30;20070;-78
2021/11/13 03:58:09;;;;;;;19.65;8.32;;;1.80;99.90;;;;;;4751036;30;20517;-79
2021/11/13 04:00:37;;;;;;;28.90;8.93;;;1.80;99.90;;;;;;4767860;30;20504;-78
2021/11/13 04:03:05;;;;;;;48.80;8.65;;;1.80;99.90;;;;;;4753178;30;20058;-78
2021/11/13 04:05:33;;;;;;;16.95;6.07;;;1.80;99.90;;;;;;4754000;29;20677;-78
2021/11/13 04:08:03;;;;;;;67.80;13.00;;;1.80;99.90;;;;;;4754380;30;20644;-78
2021/11/13 04:10:32;;;;;;;15.30;7.20;;;1.80;99.90;;;;;;4769515;29;20062;-78
2021/11/13 04:13:00;;;;;;;33.25;6.95;;;1.80;99.90;;;;;;4769995;30;20055;-78
2021/11/13 04:15:28;;;;;;;18.25;5.93;;;1.80;99.90;;;;;;4767388;29;20086;-78
2021/11/13 04:17:56;;;;;;;30.13;8.98;;;1.80;99.90;;;;;;4751208;30;20047;-78
2021/11/13 04:20:23;;;;;;;44.22;10.05;;;1.80;99.90;;;;;;4752176;30;20067;-78
2021/11/13 04:22:51;;;;;;;9.73;7.03;;;1.80;99.90;;;;;;4751532;30;20082;-78
2021/11/13 04:25:21;;;;;;;40.70;8.15;;;1.80;99.90;;;;;;4751657;30;20499;-78
2021/11/13 04:27:50;;;;;;;28.52;5.93;;;1.80;99.90;;;;;;4736007;30;20521;-78
2021/11/13 04:30:19;;;;;;;34.08;8.02;;;1.90;99.90;;;;;;4752682;30;20055;-78
2021/11/13 04:32:49;;;;;;;19.30;8.00;;;1.90;99.90;;;;;;4769192;30;20472;-78
2021/11/13 04:38:00;;;;;;;26.90;8.52;;;1.90;99.90;;;;;;4769418;29;20746;-78
2021/11/13 04:40:31;;;;;;;42.67;8.88;;;1.90;99.90;;;;;;4760179;30;20487;-78
2021/11/13 04:42:59;;;;;;;27.90;6.30;;;1.80;99.90;;;;;;4751087;30;20052;-82
2021/11/13 04:45:27;;;;;;;23.40;6.70;;;1.80;99.90;;;;;;4735220;30;20052;-83
2021/11/13 04:48:27;;;;;;;33.45;7.70;;;1.70;99.90;;;;;;4874822;24;20048;31
2021/11/13 04:50:57;;;;;;;97.32;16.95;;;1.80;99.90;;;;;;4717239;30;20514;-81
2021/11/13 04:53:25;;;;;;;87.90;9.93;;;1.70;99.90;;;;;;4719095;30;20059;-80
2021/11/13 04:55:54;;;;;;;60.40;10.88;;;1.70;99.90;;;;;;4733822;30;20533;-80
2021/11/13 04:58:22;;;;;;;45.55;8.65;;;1.70;99.90;;;;;;4704119;30;20597;-80
2021/11/13 05:00:50;;;;;;;27.17;6.45;;;1.70;99.90;;;;;;4733798;30;20395;-80
2021/11/13 05:03:18;;;;;;;22.83;6.30;;;1.70;99.90;;;;;;4733375;30;20385;-80
2021/11/13 05:05:45;;;;;;;29.63;8.18;;;1.70;99.90;;;;;;4719167;30;20061;-80
2021/11/13 05:08:13;;;;;;;14.73;8.18;;;1.70;99.90;;;;;;4705119;30;20428;-81
2021/11/13 05:10:41;;;;;;;13.70;6.30;;;1.70;99.90;;;;;;4704214;30;20052;-80
2021/11/13 05:13:12;;;;;;;24.05;9.10;;;1.70;99.90;;;;;;4732031;30;20059;-80
2021/11/13 05:15:40;;;;;;;35.38;7.22;;;1.70;99.90;;;;;;4733894;30;20068;-80
2021/11/13 05:18:08;;;;;;;33.15;7.97;;;1.70;99.90;;;;;;4732651;30;20064;-80
2021/11/13 05:20:37;;;;;;;39.40;10.93;;;1.70;99.90;;;;;;4719132;30;20052;-80
2021/11/13 05:23:05;;;;;;;55.38;9.50;;;1.70;99.90;;;;;;4732829;30;20415;-80
2021/11/13 05:25:34;;;;;;;50.35;9.98;;;1.70;99.90;;;;;;4732704;30;20073;-80
2021/11/13 05:28:02;;;;;;;49.88;7.72;;;1.70;99.90;;;;;;4732897;30;20080;-80
2021/11/13 05:30:30;;;;;;;30.35;6.82;;;1.70;99.90;;;;;;4720693;30;20071;-80
2021/11/13 05:32:57;;;;;;;22.60;6.28;;;1.70;99.90;;;;;;4750439;30;20055;-80
2021/11/13 05:35:28;;;;;;;46.60;7.37;;;1.60;99.90;;;;;;4750224;30;20044;-80
2021/11/13 05:37:56;;;;;;;22.33;7.15;;;1.60;99.90;;;;;;4734839;30;20305;-80
2021/11/13 05:40:24;;;;;;;18.15;8.30;;;1.70;99.90;;;;;;4735401;30;20060;-81
2021/11/13 05:42:54;;;;;;;16.73;6.72;;;1.70;99.90;;;;;;4750041;30;20060;-80
2021/11/13 05:45:22;;;;;;;12.98;7.32;;;1.70;99.90;;;;;;4750402;30;20052;-80
2021/11/13 05:47:50;;;;;;;16.90;8.02;;;1.80;99.90;;;;;;4735366;30;20052;-80
2021/11/13 05:50:19;;;;;;;16.15;7.43;;;1.80;99.90;;;;;;4735234;30;20044;-80
2021/11/13 05:52:49;;;;;;;16.98;7.00;;;1.80;99.90;;;;;;4735876;30;20052;-80
2021/11/13 05:55:18;;;;;;;19.83;9.35;;;1.80;99.90;;;;;;4720892;30;20048;-80
2021/11/13 05:57:46;;;;;;;26.10;8.90;;;1.80;99.90;;;;;;4749706;30;20048;-80
2021/11/13 06:00:17;;;;;;;22.42;9.68;;;1.80;99.90;;;;;;4750113;30;20059;-80
2021/11/13 06:02:45;;;;;;;20.20;9.65;;;1.80;99.90;;;;;;4750683;30;20056;-80
2021/11/13 06:05:13;;;;;;;8.88;6.43;;;1.80;99.90;;;;;;4751191;30;20067;-81
2021/11/13 06:07:42;;;;;;;12.43;6.53;;;2.00;99.90;;;;;;4720889;30;20052;-81
2021/11/13 06:10:11;;;;;;;15.00;8.82;;;1.90;99.90;;;;;;4734863;30;20497;-80
2021/11/13 06:12:43;;;;;;;12.18;7.30;;;1.90;99.90;;;;;;4750031;30;20057;-81
2021/11/13 06:15:11;;;;;;;34.80;11.30;;;1.90;99.90;;;;;;4736375;30;20087;-80
2021/11/13 06:17:40;;;;;;;12.18;7.68;;;1.90;99.90;;;;;;4717108;30;20064;-81
2021/11/13 06:20:09;;;;;;;19.65;6.88;;;1.90;99.90;;;;;;4731926;30;20052;-81
2021/11/13 06:22:38;;;;;;;11.85;7.13;;;1.90;99.90;;;;;;4702983;30;20098;-81
2021/11/13 06:25:08;;;;;;;14.07;8.27;;;2.00;99.90;;;;;;4717938;30;20053;-81
2021/11/13 06:27:37;;;;;;;11.02;6.88;;;1.90;99.90;;;;;;4732026;30;20439;-79
2021/11/13 06:30:07;;;;;;;17.67;7.80;;;2.00;99.90;;;;;;4723541;30;20052;-80
2021/11/13 06:32:35;;;;;;;33.53;9.48;;;1.90;99.90;;;;;;4751010;30;20052;-79
2021/11/13 06:35:05;;;;;;;13.15;6.53;;;2.00;99.90;;;;;;4734314;30;20063;-79
2021/11/13 06:37:33;;;;;;;22.55;7.85;;;2.00;99.90;;;;;;4750224;30;20153;-79
2021/11/13 06:40:03;;;;;;;8.32;6.07;;;2.00;99.90;;;;;;4749407;30;20056;-79
2021/11/13 06:42:31;;;;;;;18.27;8.00;;;2.00;99.90;;;;;;4749899;30;20056;-79
2021/11/13 06:44:59;;;;;;;38.65;10.00;;;1.90;99.90;;;;;;4749366;30;20052;-79
2021/11/13 06:47:27;;;;;;;14.07;6.47;;;2.00;99.90;;;;;;4732664;30;20628;-80
2021/11/13 06:49:57;;;;;;;22.05;8.02;;;2.00;99.90;;;;;;4721863;30;20041;-79
2021/11/13 06:52:25;;;;;;;8.23;6.50;;;2.00;99.90;;;;;;4722428;30;20063;-79
2021/11/13 06:54:53;;;;;;;28.23;8.02;;;1.90;99.90;;;;;;4731491;30;20049;-79
2021/11/13 06:57:21;;;;;;;22.40;8.40;;;1.90;99.90;;;;;;4727879;30;20064;-79
2021/11/13 06:59:48;;;;;;;11.20;6.65;;;1.90;99.90;;;;;;4715525;30;20053;-79
2021/11/13 07:02:16;;;;;;;15.10;7.07;;;2.00;99.90;;;;;;4728179;30;20682;-79
2021/11/13 07:04:44;;;;;;;55.13;12.10;;;2.10;99.90;;;;;;4728366;30;20061;-82
2021/11/13 07:07:13;;;;;;;12.27;7.53;;;2.10;99.90;;;;;;4727880;30;20057;-80
2021/11/13 07:09:41;;;;;;;18.45;7.70;;;2.10;99.90;;;;;;4727745;30;20049;-80
2021/11/13 07:12:09;;;;;;;20.08;6.75;;;2.00;99.90;;;;;;4699247;30;20061;-80
2021/11/13 07:14:37;;;;;;;11.68;6.10;;;2.00;99.90;;;;;;4714784;30;20053;-80
2021/11/13 07:17:05;;;;;;;9.13;7.32;;;2.00;99.90;;;;;;4727925;30;20049;-81
2021/11/13 07:19:32;;;;;;;5.03;4.53;;;2.10;99.90;;;;;;4698274;30;20057;-81
2021/11/13 07:22:00;;;;;;;11.23;5.20;;;2.10;99.90;;;;;;4727446;30;20045;-81
2021/11/13 07:24:28;;;;;;;17.85;7.90;;;2.00;99.90;;;;;;4699570;30;20049;-81
2021/11/13 07:26:56;;;;;;;13.70;6.53;;;2.10;99.90;;;;;;4716242;30;20063;-81
2021/11/13 07:29:27;;;;;;;9.48;6.50;;;2.20;99.90;;;;;;4732574;30;20056;-81
2021/11/13 07:31:55;;;;;;;15.82;7.25;;;2.30;99.90;;;;;;4748764;30;20064;-81
2021/11/13 07:34:23;;;;;;;11.65;6.40;;;2.30;99.90;;;;;;4718820;30;20056;-81
2021/11/13 07:36:51;;;;;;;8.70;6.28;;;2.50;99.90;;;;;;4754540;30;20059;-81
2021/11/13 07:39:19;;;;;;;20.52;6.70;;;2.40;99.90;;;;;;4739686;30;20423;-81
2021/11/13 07:41:46;;;;;;;12.48;6.80;;;2.40;99.90;;;;;;4737240;30;20048;-78
2021/11/13 07:44:15;;;;;;;9.88;7.85;;;2.40;99.90;;;;;;4722612;30;20048;-81
2021/11/13 07:46:42;;;;;;;24.17;6.50;;;2.50;99.90;;;;;;4724694;30;20053;-81
2021/11/13 07:49:10;;;;;;;27.85;6.38;;;2.50;99.90;;;;;;4730728;30;20492;-81
2021/11/13 07:51:38;;;;;;;16.98;8.15;;;2.50;99.90;;;;;;4722038;30;20506;-81
2021/11/13 07:54:06;;;;;;;23.85;6.10;;;2.50;99.90;;;;;;4737531;30;20695;-81
2021/11/13 07:56:34;;;;;;;37.35;12.10;;;2.70;99.90;;;;;;4721988;30;20056;-81
2021/11/13 07:59:02;;;;;;;119.97;80.45;;;2.80;99.90;;;;;;4721195;30;20519;-81
2021/11/13 08:01:30;;;;;;;13.20;8.70;;;2.90;99.90;;;;;;4729601;30;20049;-81
2021/11/13 08:03:58;;;;;;;31.17;11.02;;;2.90;99.90;;;;;;4722259;30;20067;-81
2021/11/13 08:06:26;;;;;;;64.25;43.30;;;2.80;99.90;;;;;;4733956;30;20500;-81
2021/11/13 08:08:54;;;;;;;44.40;15.95;;;2.90;99.90;;;;;;4704691;30;20411;-81
2021/11/13 08:11:21;;;;;;;32.25;8.60;;;2.90;99.90;;;;;;4735383;30;20057;-81
2021/11/13 08:13:49;;;;;;;32.88;12.65;;;2.90;99.90;;;;;;4740600;30;20053;-81
2021/11/13 08:16:17;;;;;;;34.35;7.25;;;2.90;99.90;;;;;;4718734;30;20408;-81
2021/11/13 08:18:45;;;;;;;36.15;8.40;;;3.00;99.90;;;;;;4717981;30;20061;-81
2021/11/13 08:21:13;;;;;;;19.98;7.90;;;2.90;99.90;;;;;;4728295;30;20053;-81
2021/11/13 08:23:41;;;;;;;18.48;7.95;;;3.00;99.90;;;;;;4724327;30;20056;-81
2021/11/13 08:26:09;;;;;;;25.65;5.88;;;2.90;99.90;;;;;;4730548;30;20053;-81
2021/11/13 08:28:37;;;;;;;18.17;9.00;;;2.80;99.90;;;;;;4716516;30;20092;-81
2021/11/13 08:31:05;;;;;;;68.00;8.73;;;2.80;99.90;;;;;;4726566;30;20080;-81
2021/11/13 08:33:33;;;;;;;10.98;5.70;;;2.80;99.90;;;;;;4721742;30;20048;-81
2021/11/13 08:36:01;;;;;;;6.50;4.78;;;2.80;99.90;;;;;;4737961;30;20055;-81
2021/11/13 08:38:28;;;;;;;36.72;8.00;;;2.80;99.90;;;;;;4707072;30;20148;-81
2021/11/13 08:40:58;;;;;;;42.20;11.00;;;2.90;99.90;;;;;;4725882;30;20060;-81
2021/11/13 08:43:26;;;;;;;48.22;7.85;;;3.00;99.90;;;;;;4736779;30;20554;-81
2021/11/13 08:45:55;;;;;;;20.77;8.82;;;3.00;99.90;;;;;;4721385;30;20053;-81
2021/11/13 08:48:23;;;;;;;51.70;13.13;;;3.00;99.90;;;;;;4713376;30;20491;-81
2021/11/13 08:50:51;;;;;;;30.67;12.98;;;3.10;99.90;;;;;;4734919;30;20527;-81
2021/11/13 08:53:18;;;;;;;15.75;6.95;;;3.00;99.90;;;;;;4726700;30;20049;-81
2021/11/13 08:55:46;;;;;;;15.75;7.90;;;3.10;99.90;;;;;;4717061;30;20717;-81
2021/11/13 08:58:14;;;;;;;42.42;7.65;;;3.20;99.90;;;;;;4715458;30;20064;-82
2021/11/13 09:00:57;;;;;;;33.97;7.50;;;3.30;99.90;;;;;;4732394;30;20060;-80
2021/11/13 09:03:29;;;;;;;30.80;8.00;;;3.40;99.90;;;;;;4730442;30;20064;-81
2021/11/13 09:05:59;;;;;;;39.88;9.73;;;3.50;99.90;;;;;;4735000;30;20048;-81
2021/11/13 09:08:28;;;;;;;28.05;8.00;;;3.50;99.90;;;;;;4725066;30;20057;-81
2021/11/13 09:10:56;;;;;;;52.35;11.55;;;3.50;99.90;;;;;;4732085;30;20041;-80
2021/11/13 09:13:42;;;;;;;29.67;7.75;;;3.70;99.90;;;;;;4734198;30;20056;-80
2021/11/13 09:16:56;;;;;;;44.70;8.38;;;3.70;99.90;;;;;;4730722;30;20764;-80
2021/11/13 09:20:02;;;;;;;25.55;7.60;;;3.80;99.90;;;;;;4704219;30;20490;-80
2021/11/13 09:22:39;;;;;;;14.05;7.30;;;3.90;99.90;;;;;;4721708;30;20040;-79
2021/11/13 09:25:09;;;;;;;10.70;4.47;;;4.00;99.90;;;;;;4736614;30;20068;-85
2021/11/13 09:27:41;;;;;;;48.35;9.00;;;4.10;99.90;;;;;;4716998;30;20052;-87
2021/11/13 09:30:15;;;;;;;31.55;7.05;;;4.20;99.90;;;;;;4731937;30;20549;-85
2021/11/13 09:32:43;;;;;;;24.88;6.90;;;4.30;99.90;;;;;;4716248;30;20090;-86
2021/11/13 09:35:11;;;;;;;53.78;9.45;;;4.40;99.90;;;;;;4716176;30;20049;-84
2021/11/13 09:37:39;;;;;;;35.40;10.68;;;4.30;99.90;;;;;;4716696;30;20060;-83
2021/11/13 09:40:09;;;;;;;11.52;5.00;;;4.00;99.90;;;;;;4743426;30;20072;-84
2021/11/13 09:42:42;;;;;;;6.53;5.93;;;4.00;99.90;;;;;;4713959;30;20053;-82
2021/11/13 09:45:11;;;;;;;13.85;7.25;;;4.00;99.90;;;;;;4721749;30;20422;-84
2021/11/13 09:47:43;;;;;;;14.43;6.50;;;4.10;99.90;;;;;;4732353;30;20419;-84
2021/11/13 09:50:11;;;;;;;6.68;5.35;;;4.10;99.90;;;;;;4732437;30;20056;-81
2021/11/13 09:52:40;;;;;;;15.77;7.40;;;4.20;99.90;;;;;;4733274;30;20055;-81
2021/11/13 09:55:10;;;;;;;10.60;7.57;;;4.30;99.90;;;;;;4728342;30;20053;-79
2021/11/13 09:57:38;;;;;;;7.13;5.65;;;4.30;99.90;;;;;;4714496;30;20052;-79
2021/11/13 10:00:10;;;;;;;7.38;5.78;;;4.40;99.90;;;;;;4729331;30;20059;-79
2021/11/13 10:02:38;;;;;;;;;;;4.50;99.90;;;;;;4714568;30;20064;-79
2021/11/13 10:05:06;;;;;;;6.00;5.43;;;4.40;99.90;;;;;;4722108;30;19935;-79
2021/11/13 10:07:35;;;;;;;8.07;6.68;;;4.30;99.90;;;;;;4745565;30;20061;-79
2021/11/13 10:10:06;;;;;;;12.25;6.18;;;4.40;99.90;;;;;;4731312;30;20056;-79
2021/11/13 10:12:43;;;;;;;7.55;5.75;;;4.40;99.90;;;;;;4726599;30;20057;-79
2021/11/13 10:15:34;;;;;;;6.85;6.15;;;4.40;99.90;;;;;;4732038;30;20061;-79
2021/11/13 10:18:08;;;;;;;7.50;6.72;;;4.50;99.90;;;;;;4716963;30;20062;-79
2021/11/13 10:20:43;;;;;;;8.43;7.00;;;4.60;99.90;;;;;;4732265;30;20056;-77
2021/11/13 10:23:32;;;;;;;7.40;6.32;;;4.70;99.90;;;;;;4725987;30;20262;-77
2021/11/13 10:26:01;;;;;;;11.73;8.15;;;4.80;99.90;;;;;;4714787;30;20056;-77
2021/11/13 10:28:31;;;;;;;9.45;8.50;;;4.90;99.90;;;;;;4717356;30;20493;-77
2021/11/13 10:31:23;;;;;;;7.75;6.95;;;4.90;99.90;;;;;;4744973;30;20055;-77
2021/11/13 10:33:55;;;;;;;11.10;7.15;;;4.90;99.90;;;;;;4749012;30;20056;-77
2021/11/13 10:36:28;;;;;;;8.55;7.75;;;4.90;99.90;;;;;;4750197;30;20060;-76
2021/11/13 10:39:16;;;;;;;9.65;7.82;;;4.80;99.90;;;;;;4745809;30;20041;-78
2021/11/13 10:41:49;;;;;;;8.57;7.55;;;4.90;99.90;;;;;;4737283;30;20052;-76
2021/11/13 10:44:39;;;;;;;12.90;9.00;;;4.90;99.90;;;;;;4735919;30;20420;-78
2021/11/13 10:47:17;;;;;;;11.38;8.95;;;4.90;99.90;;;;;;4731870;30;20098;-76
2021/11/13 10:49:47;;;;;;;12.77;8.93;;;4.90;99.90;;;;;;4733085;30;20514;-76
2021/11/13 10:52:16;;;;;;;7.10;6.40;;;4.70;99.90;;;;;;4732848;30;20056;-75
2021/11/13 10:54:47;;;;;;;14.68;11.45;;;4.90;99.90;;;;;;4729817;30;20415;-77
2021/11/13 10:57:28;;;;;;;9.55;7.50;;;4.80;99.90;;;;;;4732487;30;20076;-77
2021/11/13 11:00:11;;;;;;;13.48;7.38;;;4.80;99.90;;;;;;4733571;30;20063;-78
2021/11/13 11:02:39;;;;;;;9.98;7.05;;;4.90;99.90;;;;;;4743686;30;20056;-77
2021/11/13 11:05:17;;;;;;;8.55;7.75;;;5.00;99.90;;;;;;4750376;30;20209;-82
2021/11/13 11:07:44;;;;;;;13.50;7.63;;;5.00;99.90;;;;;;4733231;30;20063;-79
2021/11/13 11:10:15;;;;;;;10.63;8.35;;;5.20;99.90;;;;;;4732375;30;20068;-80
2021/11/13 11:12:46;;;;;;;15.23;9.15;;;5.40;99.90;;;;;;4731729;30;20511;-80
2021/11/13 11:15:15;;;;;;;10.85;9.65;;;5.40;99.90;;;;;;4733657;30;20055;-80
2021/11/13 11:17:46;;;;;;;10.07;7.43;;;5.60;99.90;;;;;;4707693;30;20533;-80
2021/11/13 11:20:18;;;;;;;11.30;7.65;;;5.60;99.90;;;;;;4732061;30;20052;-81
2021/11/13 11:22:47;;;;;;;9.18;7.28;;;5.60;99.90;;;;;;4735994;30;20063;-81
2021/11/13 11:25:16;;;;;;;7.90;6.47;;;5.60;99.90;;;;;;4729599;30;20061;-81
2021/11/13 11:27:48;;;;;;;9.38;7.35;;;5.70;99.90;;;;;;4733233;30;20056;-81
2021/11/13 11:30:18;;;;;;;11.90;7.03;;;5.70;99.90;;;;;;4717985;30;20057;-81
2021/11/13 11:32:49;;;;;;;11.63;7.60;;;5.80;99.90;;;;;;4706481;30;20061;-81
2021/11/13 11:35:39;;;;;;;10.93;8.23;;;6.00;99.90;;;;;;4715057;30;20064;-81
2021/11/13 11:38:11;;;;;;;12.93;8.50;;;5.90;99.90;;;;;;4733417;30;20053;-81
2021/11/13 11:40:43;;;;;;;13.15;7.40;;;5.90;99.90;;;;;;4749167;30;20391;-82
2021/11/13 11:43:13;;;;;;;12.65;8.55;;;5.80;99.90;;;;;;4745886;30;20052;-83
2021/11/13 11:45:43;;;;;;;9.77;7.30;;;5.90;99.90;;;;;;4723694;30;20044;-85
2021/11/13 11:48:14;;;;;;;12.20;8.63;;;5.80;99.90;;;;;;4743591;30;20048;-82
2021/11/13 11:50:45;;;;;;;10.05;7.28;;;6.00;99.90;;;;;;4739656;30;20053;-80
2021/11/13 11:53:14;;;;;;;11.23;7.30;;;6.00;99.90;;;;;;4747801;30;20052;-79
2021/11/13 11:55:46;;;;;;;8.18;7.10;;;6.00;99.90;;;;;;4742605;30;20048;-80
2021/11/13 11:58:19;;;;;;;12.63;8.25;;;5.90;99.90;;;;;;4723792;30;20041;-80
2021/11/13 12:00:52;;;;;;;10.13;7.72;;;6.10;99.90;;;;;;4733755;30;20048;-80
2021/11/13 12:03:26;;;;;;;15.55;8.93;;;6.30;99.90;;;;;;4729512;30;20060;-80
2021/11/13 12:05:55;;;;;;;10.00;7.97;;;6.30;99.90;;;;;;4722421;30;20056;-80
2021/11/13 12:08:26;;;;;;;9.40;8.05;;;6.30;99.90;;;;;;4720073;30;20064;-80
2021/11/13 12:11:15;;;;;;;8.27;7.45;;;6.40;99.90;;;;;;4727404;30;20056;-80
2021/11/13 12:13:42;;;;;;;8.95;6.88;;;6.50;99.90;;;;;;4708262;30;20057;-80
2021/11/13 12:16:25;;;;;;;8.35;7.53;;;6.50;99.90;;;;;;4730610;30;20049;-80
2021/11/13 12:18:57;;;;;;;9.15;7.68;;;6.40;99.90;;;;;;4730826;30;20515;-80
2021/11/13 12:21:32;;;;;;;8.55;7.65;;;6.20;99.90;;;;;;4733337;30;20052;-80
2021/11/13 12:24:07;;;;;;;9.43;8.02;;;6.20;99.90;;;;;;4733170;30;20841;-79
2021/11/13 12:26:38;;;;;;;9.88;8.43;;;6.20;99.90;;;;;;4730218;30;20041;-80
2021/11/13 12:29:13;;;;;;;11.35;9.35;;;6.10;99.90;;;;;;4734189;30;20477;-80
2021/11/13 12:31:42;;;;;;;13.10;9.23;;;6.00;99.90;;;;;;4734988;30;20057;-80
2021/11/13 12:34:16;;;;;;;13.80;8.52;;;6.00;99.90;;;;;;4732207;30;20839;-80
2021/11/13 12:36:52;;;;;;;12.52;8.18;;;6.10;99.90;;;;;;4734073;30;20056;-80
2021/11/13 12:39:21;;;;;;;11.27;8.02;;;6.00;99.90;;;;;;4738027;30;20044;-80
2021/11/13 12:41:57;;;;;;;11.55;8.98;;;6.00;99.90;;;;;;4731399;30;20472;-80
2021/11/13 12:44:24;;;;;;;11.25;9.68;;;6.00;99.90;;;;;;4725286;30;20527;-80
2021/11/13 12:46:59;;;;;;;11.50;10.07;;;5.90;99.90;;;;;;4724697;30;20407;-80
2021/11/13 12:49:31;;;;;;;11.98;9.30;;;5.90;99.90;;;;;;4729716;30;20063;-80
2021/11/13 12:52:00;;;;;;;9.23;7.40;;;6.00;99.90;;;;;;4733830;30;20063;-80
2021/11/13 12:54:46;;;;;;;12.90;9.02;;;5.90;99.90;;;;;;4731280;30;20044;-79
2021/11/13 12:57:25;;;;;;;13.40;9.10;;;5.90;99.90;;;;;;4730945;30;20064;-80
2021/11/13 13:00:15;;;;;;;11.80;10.60;;;6.00;99.90;;;;;;4735788;30;20053;-80
2021/11/13 13:03:14;;;;;;;10.73;8.80;;;6.00;99.90;;;;;;4729041;30;20053;-79
2021/11/13 13:05:44;;;;;;;10.68;8.55;;;6.10;99.90;;;;;;4734686;30;20419;-80
2021/11/13 13:08:15;;;;;;;12.13;8.02;;;6.10;99.90;;;;;;4732454;30;20395;-80
2021/11/13 13:10:43;;;;;;;9.93;8.55;;;6.20;99.90;;;;;;4733316;30;20049;-80
2021/11/13 13:13:14;;;;;;;11.27;8.75;;;6.20;99.90;;;;;;4732967;30;20048;-80